Time;durP1;ratioP1;P1;durP2;ratioP2;P2;SDS_P1;SDS_P2;PMS_P1;PMS_P2;Temp;Humidity;BMP_temperature;BMP_pressure;BME280_temperature;BME280_humidity;BME280_pressure;Samples;Min_cycle;Max_cycle;Signal;HPM_P1;HPM_P2
2021/07/22 00:01:21;;;;;;;6.28;3.42;;;22.60;66.70;;;;;;5015816;28;20038;-40
2021/07/22 00:03:47;;;;;;;4.82;3.40;;;22.50;66.60;;;;;;5015465;28;20036;-40
2021/07/22 00:06:12;;;;;;;6.28;3.55;;;22.50;66.50;;;;;;5015866;28;20040;-40
2021/07/22 00:08:38;;;;;;;4.57;3.20;;;22.50;66.60;;;;;;5016445;28;20112;-41
2021/07/22 00:11:07;;;;;;;6.00;3.03;;;22.50;66.60;;;;;;5016003;28;20069;-42
2021/07/22 00:13:33;;;;;;;5.13;2.97;;;22.50;66.60;;;;;;5016214;28;20344;-41
2021/07/22 00:15:58;;;;;;;4.65;3.05;;;22.50;67.20;;;;;;5015988;28;20030;-41
2021/07/22 00:18:25;;;;;;;5.07;3.05;;;22.50;66.60;;;;;;5016243;28;20040;-40
2021/07/22 00:20:50;;;;;;;3.65;2.85;;;22.50;66.70;;;;;;5016222;28;20084;-41
2021/07/22 00:23:16;;;;;;;6.85;3.40;;;22.50;66.60;;;;;;5016174;28;20496;-40
2021/07/22 00:25:42;;;;;;;7.90;3.22;;;22.50;66.60;;;;;;5016291;28;20402;-41
2021/07/22 00:28:09;;;;;;;6.13;3.33;;;22.50;66.50;;;;;;5015902;28;20041;-40
2021/07/22 00:30:34;;;;;;;4.28;2.90;;;22.40;66.40;;;;;;5016266;28;20365;-40
2021/07/22 00:33:01;;;;;;;6.05;3.13;;;22.40;66.30;;;;;;5015913;28;20037;-40
2021/07/22 00:35:28;;;;;;;5.50;3.40;;;22.40;66.20;;;;;;5015637;28;20378;-40
2021/07/22 00:37:53;;;;;;;5.82;3.10;;;22.40;66.30;;;;;;5015810;28;20330;-40
2021/07/22 00:40:19;;;;;;;8.50;3.90;;;22.40;66.30;;;;;;5015747;28;20034;-41
2021/07/22 00:43:17;;;;;;;6.90;3.17;;;22.40;66.20;;;;;;5015840;28;20034;-40
2021/07/22 00:45:42;;;;;;;4.45;3.03;;;22.40;66.20;;;;;;4983082;28;20034;-41
2021/07/22 00:48:08;;;;;;;5.35;3.08;;;22.30;66.00;;;;;;5015705;28;20040;-41
2021/07/22 00:50:34;;;;;;;4.70;3.20;;;22.30;65.90;;;;;;5017203;28;20041;-40
2021/07/22 00:52:59;;;;;;;5.97;3.05;;;22.30;65.80;;;;;;5019565;28;20420;-41
2021/07/22 00:55:27;;;;;;;5.47;3.00;;;22.30;65.60;;;;;;5019432;28;20422;-41
2021/07/22 00:57:53;;;;;;;3.80;3.08;;;22.20;65.50;;;;;;5019581;28;20041;-43
2021/07/22 01:00:20;;;;;;;3.95;2.80;;;22.20;65.60;;;;;;5019368;28;20117;-40
2021/07/22 01:02:45;;;;;;;4.68;2.75;;;22.20;65.50;;;;;;5019313;28;20029;-40
2021/07/22 01:05:11;;;;;;;5.00;3.22;;;22.20;65.70;;;;;;5019321;28;20426;-40
2021/07/22 01:07:37;;;;;;;6.00;3.20;;;22.20;65.50;;;;;;5019280;28;20330;-40
2021/07/22 01:10:04;;;;;;;4.20;3.00;;;22.20;65.40;;;;;;5019520;28;20253;-41
2021/07/22 01:12:31;;;;;;;5.35;3.38;;;22.10;65.50;;;;;;5019048;28;20026;-41
2021/07/22 01:14:57;;;;;;;9.98;2.80;;;22.10;65.60;;;;;;5019427;28;20379;-41
2021/07/22 01:17:46;;;;;;;6.07;2.78;;;22.10;65.60;;;;;;5018854;28;20176;-41
2021/07/22 01:20:26;;;;;;;4.30;2.90;;;22.10;65.50;;;;;;5019148;28;20033;-42
2021/07/22 01:22:54;;;;;;;6.83;2.90;;;22.10;65.60;;;;;;5019280;28;20445;-41
2021/07/22 01:25:21;;;;;;;4.28;2.80;;;22.00;65.50;;;;;;5018905;28;20109;-41
2021/07/22 01:27:47;;;;;;;6.07;2.92;;;22.00;65.60;;;;;;5018723;28;20021;-42
2021/07/22 01:30:17;;;;;;;5.05;3.15;;;22.00;65.70;;;;;;5018846;28;20113;-42
2021/07/22 01:32:43;;;;;;;6.03;2.75;;;22.00;65.80;;;;;;5018481;28;20040;-41
2021/07/22 01:35:10;;;;;;;3.15;2.85;;;22.00;65.50;;;;;;5018473;28;20053;-41
2021/07/22 01:37:40;;;;;;;4.55;3.17;;;22.00;65.80;;;;;;5018523;28;20053;-41
2021/07/22 01:40:07;;;;;;;5.97;3.38;;;22.00;65.80;;;;;;5018957;28;20044;-40
2021/07/22 01:42:33;;;;;;;6.70;3.10;;;22.00;65.70;;;;;;5018405;28;20057;-41
2021/07/22 01:44:59;;;;;;;4.38;2.58;;;22.00;65.70;;;;;;5018805;28;20030;-41
2021/07/22 01:47:24;;;;;;;5.85;2.63;;;22.00;65.10;;;;;;5018499;28;20054;-40
2021/07/22 01:49:51;;;;;;;5.72;2.80;;;22.00;64.90;;;;;;5018715;28;20030;-41
2021/07/22 01:52:16;;;;;;;4.00;2.55;;;22.00;64.70;;;;;;5018027;28;20038;-40
2021/07/22 01:54:42;;;;;;;4.40;2.33;;;22.00;64.40;;;;;;5018423;28;20044;-42
2021/07/22 01:57:08;;;;;;;4.78;2.50;;;22.00;64.40;;;;;;5018129;28;20114;-40
2021/07/22 01:59:36;;;;;;;5.32;2.67;;;22.00;64.60;;;;;;5018601;28;20026;-41
2021/07/22 02:02:03;;;;;;;5.82;2.35;;;22.00;64.40;;;;;;5016841;28;20033;-41
2021/07/22 02:04:29;;;;;;;4.07;2.67;;;22.00;64.40;;;;;;5018565;28;20030;-41
2021/07/22 02:06:54;;;;;;;4.72;2.38;;;22.00;64.40;;;;;;5016786;28;20091;-40
2021/07/22 02:09:20;;;;;;;5.05;2.85;;;21.90;64.40;;;;;;5018702;28;20033;-41
2021/07/22 02:11:46;;;;;;;4.57;2.67;;;21.90;64.60;;;;;;5018028;28;20299;-41
2021/07/22 02:14:11;;;;;;;4.47;2.70;;;21.90;64.70;;;;;;5017076;28;20037;-40
2021/07/22 02:16:39;;;;;;;4.30;2.58;;;21.90;64.90;;;;;;5017662;28;20033;-43
2021/07/22 02:19:05;;;;;;;6.30;2.72;;;21.80;64.90;;;;;;5018283;28;20334;-41
2021/07/22 02:21:30;;;;;;;7.18;2.60;;;21.80;65.20;;;;;;5017870;28;20044;-41
2021/07/22 02:23:56;;;;;;;4.40;2.80;;;21.80;65.40;;;;;;5017781;28;20037;-41
2021/07/22 02:26:22;;;;;;;5.03;2.70;;;21.70;65.30;;;;;;5017606;28;20048;-40
2021/07/22 02:28:47;;;;;;;5.60;2.72;;;21.70;65.40;;;;;;5018241;28;20061;-42
2021/07/22 02:31:13;;;;;;;7.28;2.55;;;21.70;65.50;;;;;;5017564;28;20062;-41
2021/07/22 02:33:39;;;;;;;5.72;2.90;;;21.60;65.80;;;;;;5017760;28;20030;-40
2021/07/22 02:36:04;;;;;;;5.97;3.13;;;21.60;65.60;;;;;;5017376;28;20057;-40
2021/07/22 02:38:30;;;;;;;5.93;3.13;;;21.60;66.10;;;;;;5016493;28;20045;-41
2021/07/22 02:40:56;;;;;;;5.22;2.50;;;21.60;65.70;;;;;;5017715;28;20044;-40
2021/07/22 02:43:21;;;;;;;5.47;3.00;;;21.60;66.00;;;;;;5017525;28;20365;-42
2021/07/22 02:45:47;;;;;;;5.00;3.22;;;21.50;66.00;;;;;;5017403;28;20080;-41
2021/07/22 02:48:12;;;;;;;5.60;2.72;;;21.50;66.10;;;;;;5017402;28;20314;-40
2021/07/22 02:50:38;;;;;;;3.33;2.70;;;21.40;66.20;;;;;;5017656;28;20350;-40
2021/07/22 02:53:04;;;;;;;6.93;3.20;;;21.40;66.60;;;;;;5016941;28;20087;-40
2021/07/22 02:55:30;;;;;;;9.02;2.90;;;21.40;66.50;;;;;;5017594;28;20160;-41
2021/07/22 02:57:56;;;;;;;5.35;3.20;;;21.40;66.50;;;;;;5017091;28;20406;-40
2021/07/22 03:00:21;;;;;;;4.93;2.70;;;21.40;66.60;;;;;;5017178;28;20060;-40
2021/07/22 03:02:47;;;;;;;5.50;3.08;;;21.30;66.80;;;;;;5016953;28;20033;-41
2021/07/22 03:05:13;;;;;;;7.05;3.47;;;21.30;66.90;;;;;;5016985;28;20026;-42
2021/07/22 03:07:39;;;;;;;7.93;3.03;;;21.30;67.00;;;;;;5016755;28;20034;-41
2021/07/22 03:10:05;;;;;;;3.58;2.63;;;21.20;67.00;;;;;;5017236;28;20032;-40
2021/07/22 03:12:31;;;;;;;7.05;3.20;;;21.20;67.30;;;;;;5016657;28;20096;-41
2021/07/22 03:14:57;;;;;;;7.45;3.13;;;21.20;67.40;;;;;;5016914;28;20037;-40
2021/07/22 03:17:23;;;;;;;7.63;2.95;;;21.10;67.50;;;;;;5016747;28;20029;-40
2021/07/22 03:19:49;;;;;;;10.95;3.47;;;21.10;67.60;;;;;;5017077;28;20367;-41
2021/07/22 03:22:15;;;;;;;5.18;3.17;;;21.00;67.80;;;;;;5016759;28;20314;-41
2021/07/22 03:24:41;;;;;;;3.88;3.03;;;21.00;67.70;;;;;;5017104;28;20033;-40
2021/07/22 03:27:06;;;;;;;7.70;2.97;;;21.00;67.90;;;;;;5016394;28;20026;-39
2021/07/22 03:29:33;;;;;;;7.05;3.55;;;21.00;67.90;;;;;;5016904;28;20052;-39
2021/07/22 03:32:00;;;;;;;7.97;3.45;;;21.00;68.10;;;;;;5016143;28;20029;-41
2021/07/22 03:34:26;;;;;;;5.47;3.50;;;20.90;68.30;;;;;;5016532;28;20077;-39
2021/07/22 03:36:51;;;;;;;4.18;2.85;;;20.90;68.40;;;;;;5016541;28;20030;-41
2021/07/22 03:39:17;;;;;;;7.32;3.00;;;20.90;68.50;;;;;;5016418;28;20034;-40
2021/07/22 03:41:49;;;;;;;8.02;3.53;;;20.90;68.50;;;;;;5016223;28;20045;-41
2021/07/22 03:44:15;;;;;;;9.05;3.97;;;20.90;68.90;;;;;;5016744;28;20050;-42
2021/07/22 03:46:42;;;;;;;11.40;3.90;;;20.90;68.80;;;;;;5016017;28;20039;-40
2021/07/22 03:49:07;;;;;;;6.97;3.30;;;20.80;68.90;;;;;;5016703;28;20040;-40
2021/07/22 03:51:33;;;;;;;6.05;3.95;;;20.80;69.00;;;;;;5016069;28;20045;-40
2021/07/22 03:53:59;;;;;;;4.35;3.25;;;20.80;69.00;;;;;;5016577;28;20088;-40
2021/07/22 03:56:25;;;;;;;7.55;3.20;;;20.80;69.20;;;;;;5016073;28;20514;-40
2021/07/22 03:58:53;;;;;;;4.70;3.40;;;20.70;69.30;;;;;;5016649;28;20438;-41
2021/07/22 04:01:19;;;;;;;5.95;3.58;;;20.80;69.60;;;;;;5016110;28;20117;-40
2021/07/22 04:03:45;;;;;;;7.00;3.85;;;20.70;69.60;;;;;;5016654;28;20069;-40
2021/07/22 04:06:11;;;;;;;7.50;4.00;;;20.70;69.50;;;;;;5015883;28;20133;-42
2021/07/22 04:08:37;;;;;;;6.30;4.00;;;20.70;69.60;;;;;;5016124;28;20026;-39
2021/07/22 04:11:03;;;;;;;10.30;3.75;;;20.70;69.70;;;;;;5016176;28;20112;-40
2021/07/22 04:13:29;;;;;;;6.93;4.72;;;20.70;69.80;;;;;;5015913;28;20090;-40
2021/07/22 04:15:54;;;;;;;8.93;4.13;;;20.70;69.90;;;;;;5016320;28;20422;-41
2021/07/22 04:18:20;;;;;;;11.30;4.07;;;20.70;69.90;;;;;;5016026;28;20029;-40
2021/07/22 04:20:46;;;;;;;8.68;4.97;;;20.70;69.90;;;;;;5015907;28;20359;-41
2021/07/22 04:23:11;;;;;;;5.47;3.92;;;20.70;69.90;;;;;;5015796;28;20025;-39
2021/07/22 04:25:37;;;;;;;6.28;3.55;;;20.70;70.00;;;;;;5016960;28;20437;-40
2021/07/22 04:28:03;;;;;;;10.57;3.95;;;20.70;69.80;;;;;;5019861;28;20037;-40
2021/07/22 04:30:29;;;;;;;8.25;3.97;;;20.70;69.70;;;;;;5020353;28;20352;-40
2021/07/22 04:32:57;;;;;;;9.50;4.00;;;20.80;70.00;;;;;;5019941;28;20318;-40
2021/07/22 04:35:23;;;;;;;6.13;3.50;;;20.80;70.00;;;;;;5019435;28;20172;-40
2021/07/22 04:37:49;;;;;;;5.90;4.00;;;20.80;70.00;;;;;;5019718;28;20058;-40
2021/07/22 04:40:14;;;;;;;5.93;3.88;;;20.80;70.00;;;;;;5019479;28;20322;-40
2021/07/22 04:42:40;;;;;;;8.07;4.00;;;20.80;69.90;;;;;;5019280;28;20045;-41
2021/07/22 04:45:06;;;;;;;8.48;4.05;;;20.80;70.00;;;;;;5019327;28;20033;-40
2021/07/22 04:47:32;;;;;;;13.27;4.15;;;20.80;70.00;;;;;;5019557;28;20314;-39
2021/07/22 04:49:58;;;;;;;5.72;4.40;;;20.80;70.30;;;;;;5018321;28;20029;-40
2021/07/22 04:52:24;;;;;;;10.40;4.70;;;20.80;70.20;;;;;;5019023;28;20417;-40
2021/07/22 04:54:49;;;;;;;6.32;4.05;;;20.80;70.00;;;;;;5019285;28;20072;-40
2021/07/22 04:57:15;;;;;;;6.95;3.70;;;20.90;69.90;;;;;;5018985;28;20026;-40
2021/07/22 04:59:41;;;;;;;11.30;4.35;;;20.90;69.90;;;;;;5019206;28;20041;-39
2021/07/22 05:02:06;;;;;;;5.85;3.90;;;21.00;69.70;;;;;;5018860;28;20133;-40
2021/07/22 05:04:32;;;;;;;11.52;4.18;;;21.00;69.70;;;;;;5017955;28;20030;-40
2021/07/22 05:06:58;;;;;;;8.05;3.90;;;21.00;69.60;;;;;;5019156;28;20072;-41
2021/07/22 05:09:23;;;;;;;5.13;3.65;;;21.10;69.60;;;;;;5018905;28;20109;-40
2021/07/22 05:11:49;;;;;;;4.97;3.95;;;21.10;69.60;;;;;;5018764;28;20033;-40
2021/07/22 05:14:15;;;;;;;7.82;4.00;;;21.20;69.40;;;;;;5019312;28;20402;-40
2021/07/22 05:16:40;;;;;;;7.90;3.60;;;21.30;69.40;;;;;;5018908;28;20045;-40
2021/07/22 05:19:06;;;;;;;6.75;4.13;;;21.30;69.20;;;;;;5019075;28;20346;-40
2021/07/22 05:21:32;;;;;;;6.55;4.05;;;21.40;69.20;;;;;;5018846;28;20050;-42
2021/07/22 05:23:57;;;;;;;5.00;3.78;;;21.50;68.80;;;;;;5019222;28;20017;-40
2021/07/22 05:26:23;;;;;;;4.40;3.55;;;21.50;68.80;;;;;;5018314;28;20494;-42
2021/07/22 05:28:48;;;;;;;6.72;3.70;;;21.60;68.70;;;;;;5019113;28;20034;-40
2021/07/22 05:31:14;;;;;;;5.57;3.80;;;21.60;68.80;;;;;;5018253;28;20056;-40
2021/07/22 05:33:41;;;;;;;9.85;4.70;;;21.70;68.50;;;;;;5018336;28;20303;-40
2021/07/22 05:36:08;;;;;;;8.90;4.00;;;21.70;68.30;;;;;;5018268;28;20049;-40
2021/07/22 05:38:36;;;;;;;5.20;3.83;;;21.80;68.30;;;;;;5018573;28;20112;-40
2021/07/22 05:41:04;;;;;;;12.55;4.78;;;21.90;68.50;;;;;;5017951;28;20038;-41
2021/07/22 05:43:30;;;;;;;9.77;4.40;;;21.90;68.20;;;;;;5017953;28;20034;-41
2021/07/22 05:45:56;;;;;;;13.95;5.25;;;21.90;68.60;;;;;;5018256;28;20030;-42
2021/07/22 05:48:22;;;;;;;7.50;4.40;;;22.00;67.70;;;;;;5018132;28;20132;-41
2021/07/22 05:50:49;;;;;;;11.98;5.25;;;22.10;67.60;;;;;;5018155;28;20030;-40
2021/07/22 05:53:15;;;;;;;8.30;4.28;;;22.10;67.10;;;;;;5018245;28;20424;-41
2021/07/22 05:55:41;;;;;;;11.27;4.60;;;22.10;67.00;;;;;;5017911;28;20038;-40
2021/07/22 05:58:07;;;;;;;17.60;4.63;;;22.10;67.10;;;;;;5017963;28;20049;-41
2021/07/22 06:00:33;;;;;;;8.40;4.43;;;22.10;66.90;;;;;;5017819;28;20030;-40
2021/07/22 06:02:59;;;;;;;5.60;4.25;;;22.20;66.90;;;;;;5017951;28;20089;-41
2021/07/22 06:05:24;;;;;;;10.50;4.10;;;22.20;67.10;;;;;;5017825;28;20033;-40
2021/07/22 06:07:50;;;;;;;11.43;4.50;;;22.20;67.00;;;;;;5017705;28;20030;-40
2021/07/22 06:10:16;;;;;;;16.98;4.82;;;22.20;66.80;;;;;;5018114;28;20022;-40
2021/07/22 06:12:43;;;;;;;7.32;4.40;;;22.30;67.30;;;;;;5017975;28;20060;-40
2021/07/22 06:15:12;;;;;;;5.25;3.95;;;22.30;67.40;;;;;;5017421;28;20069;-40
2021/07/22 06:17:38;;;;;;;14.40;5.85;;;22.40;67.20;;;;;;5017512;28;20425;-40
2021/07/22 06:20:05;;;;;;;10.20;3.85;;;22.50;66.50;;;;;;5017781;28;20037;-40
2021/07/22 06:22:31;;;;;;;8.73;4.45;;;22.50;66.60;;;;;;5017134;28;20038;-40
2021/07/22 06:24:57;;;;;;;8.50;4.30;;;22.60;67.20;;;;;;5017391;28;20088;-40
2021/07/22 06:27:23;;;;;;;10.68;4.50;;;22.60;66.30;;;;;;5017087;28;20026;-40
2021/07/22 06:29:49;;;;;;;11.80;6.25;;;22.70;66.70;;;;;;5017518;28;20426;-41
2021/07/22 06:32:15;;;;;;;9.18;4.10;;;22.80;66.60;;;;;;5015749;28;20049;-40
2021/07/22 06:34:40;;;;;;;6.15;4.20;;;22.70;66.30;;;;;;5017095;28;20066;-40
2021/07/22 06:37:06;;;;;;;9.00;4.05;;;22.80;66.50;;;;;;5016883;28;20033;-41
2021/07/22 06:39:32;;;;;;;7.50;4.10;;;22.80;66.70;;;;;;5017394;28;20030;-41
2021/07/22 06:41:59;;;;;;;5.65;3.70;;;22.90;66.10;;;;;;5017063;28;20322;-41
2021/07/22 06:44:25;;;;;;;6.68;4.10;;;23.00;66.10;;;;;;5017011;28;20033;-41
2021/07/22 06:46:51;;;;;;;11.02;3.75;;;23.00;65.60;;;;;;5017326;28;20295;-42
2021/07/22 06:49:16;;;;;;;6.80;4.28;;;23.10;66.00;;;;;;5017053;28;20310;-41
2021/07/22 06:51:42;;;;;;;10.25;4.15;;;23.10;65.60;;;;;;5016625;28;20034;-41
2021/07/22 06:54:09;;;;;;;9.90;4.00;;;23.20;66.00;;;;;;5017119;28;20421;-41
2021/07/22 06:56:35;;;;;;;8.68;3.85;;;23.30;66.10;;;;;;5016607;28;20041;-41
2021/07/22 06:59:01;;;;;;;10.73;4.25;;;23.40;65.90;;;;;;5017227;28;20044;-41
2021/07/22 07:01:27;;;;;;;7.97;4.05;;;23.40;65.70;;;;;;5016758;28;20091;-41
2021/07/22 07:03:52;;;;;;;8.38;3.70;;;23.60;65.30;;;;;;5017094;28;20105;-41
2021/07/22 07:06:18;;;;;;;9.23;3.78;;;23.70;65.20;;;;;;5016639;28;20534;-43
2021/07/22 07:08:43;;;;;;;5.40;3.60;;;23.80;64.60;;;;;;5017172;28;20306;-41
2021/07/22 07:11:09;;;;;;;9.48;3.88;;;23.90;64.30;;;;;;5016391;28;20056;-41
2021/07/22 07:13:35;;;;;;;6.60;3.17;;;24.00;64.00;;;;;;5016708;28;20399;-41
2021/07/22 07:16:05;;;;;;;8.75;3.90;;;24.10;63.30;;;;;;5016322;28;20033;-41
2021/07/22 07:18:30;;;;;;;8.00;3.67;;;24.10;62.90;;;;;;5016758;28;20025;-40
2021/07/22 07:20:56;;;;;;;8.35;3.10;;;24.20;63.40;;;;;;5016658;28;20411;-41
2021/07/22 07:23:22;;;;;;;13.00;3.78;;;24.30;62.40;;;;;;5016592;28;20279;-41
2021/07/22 07:25:47;;;;;;;13.93;4.55;;;24.30;62.00;;;;;;5014645;28;20076;-41
2021/07/22 07:28:13;;;;;;;10.13;5.03;;;24.40;62.20;;;;;;5015434;28;20030;-40
2021/07/22 07:30:39;;;;;;;15.40;7.72;;;24.40;62.00;;;;;;5016481;28;20326;-41
2021/07/22 07:33:05;;;;;;;17.40;9.18;;;24.50;61.90;;;;;;5015961;28;20026;-40
2021/07/22 07:35:31;;;;;;;6.10;4.20;;;24.50;61.70;;;;;;5015934;28;20038;-40
2021/07/22 07:37:57;;;;;;;13.45;9.98;;;24.60;61.30;;;;;;5015962;28;20068;-40
2021/07/22 07:40:23;;;;;;;23.58;12.93;;;24.60;61.20;;;;;;5016013;28;20041;-40
2021/07/22 07:42:49;;;;;;;9.20;7.00;;;24.70;60.90;;;;;;5015608;28;20034;-40
2021/07/22 07:45:14;;;;;;;16.73;11.10;;;24.70;60.30;;;;;;5016125;28;20084;-40
2021/07/22 07:47:40;;;;;;;11.38;6.07;;;24.80;59.50;;;;;;5012338;28;20030;-39
2021/07/22 07:50:07;;;;;;;10.43;6.13;;;24.80;59.40;;;;;;5015694;28;20034;-40
2021/07/22 07:52:36;;;;;;;14.13;8.50;;;24.90;59.20;;;;;;5015075;28;20432;-41
2021/07/22 07:55:06;;;;;;;7.95;3.40;;;25.00;59.20;;;;;;5015604;28;20077;-40
2021/07/22 07:57:32;;;;;;;10.15;5.95;;;25.00;57.90;;;;;;5015096;28;20030;-40
2021/07/22 07:59:58;;;;;;;8.85;4.78;;;25.00;58.20;;;;;;5014692;28;20076;-40
2021/07/22 08:02:23;;;;;;;8.60;4.93;;;25.10;57.60;;;;;;5014887;28;20030;-39
2021/07/22 08:04:49;;;;;;;15.82;10.32;;;25.10;56.80;;;;;;5015845;28;20038;-40
2021/07/22 08:07:15;;;;;;;9.73;8.00;;;25.20;57.30;;;;;;5013925;28;20026;-39
2021/07/22 08:09:40;;;;;;;20.05;12.38;;;25.20;57.60;;;;;;5015306;28;20113;-39
2021/07/22 08:12:06;;;;;;;8.02;4.40;;;25.20;57.60;;;;;;5014892;28;20026;-39
2021/07/22 08:14:36;;;;;;;4.97;2.58;;;25.20;57.10;;;;;;5015744;28;20429;-41
2021/07/22 08:17:03;;;;;;;;;;;25.30;56.20;;;;;;5014966;28;20037;-40
2021/07/22 08:19:29;;;;;;;6.47;4.50;;;25.30;57.10;;;;;;5015682;28;19913;-40
2021/07/22 08:21:55;;;;;;;10.90;3.70;;;25.30;56.40;;;;;;5014788;28;20080;-41
2021/07/22 08:24:20;;;;;;;8.40;5.32;;;25.40;56.00;;;;;;5015513;28;20052;-40
2021/07/22 08:26:46;;;;;;;5.30;2.95;;;25.40;56.60;;;;;;5013699;28;20026;-40
2021/07/22 08:29:12;;;;;;;6.60;4.40;;;25.40;56.30;;;;;;5015665;28;20022;-39
2021/07/22 08:31:37;;;;;;;10.95;4.60;;;25.40;56.00;;;;;;5014562;28;20418;-40
2021/07/22 08:34:03;;;;;;;5.43;2.50;;;25.40;56.20;;;;;;5015084;28;20096;-39
2021/07/22 08:36:29;;;;;;;12.38;4.53;;;25.50;56.00;;;;;;5014565;28;20457;-39
2021/07/22 08:38:54;;;;;;;11.52;4.75;;;25.50;55.80;;;;;;5015123;28;20033;-40
2021/07/22 08:41:20;;;;;;;8.20;3.55;;;25.50;55.90;;;;;;5014757;28;20382;-40
2021/07/22 08:43:50;;;;;;;3.78;2.88;;;25.50;56.20;;;;;;5015166;28;20026;-40
2021/07/22 08:46:16;;;;;;;6.95;3.55;;;25.50;55.60;;;;;;5014893;28;20355;-40
2021/07/22 08:48:43;;;;;;;4.65;2.67;;;25.50;55.60;;;;;;5015072;28;20121;-41
2021/07/22 08:51:09;;;;;;;6.78;3.28;;;25.60;55.10;;;;;;5015013;28;20029;-39
2021/07/22 08:53:36;;;;;;;5.75;2.90;;;25.60;54.80;;;;;;5015041;28;20037;-40
2021/07/22 08:56:05;;;;;;;4.70;2.55;;;25.60;54.70;;;;;;5014737;28;20414;-40
2021/07/22 08:58:32;;;;;;;4.05;2.40;;;25.60;54.10;;;;;;5014642;28;20070;-40
2021/07/22 09:01:00;;;;;;;5.70;2.90;;;25.60;53.30;;;;;;5014660;28;20088;-40
2021/07/22 09:03:26;;;;;;;3.97;2.50;;;25.60;53.70;;;;;;5015182;28;20030;-39
2021/07/22 09:05:51;;;;;;;3.95;2.47;;;25.60;53.20;;;;;;5015144;28;20324;-40
2021/07/22 09:08:17;;;;;;;4.28;2.15;;;25.60;53.40;;;;;;5014322;28;20030;-40
2021/07/22 09:10:43;;;;;;;3.20;2.58;;;25.60;53.40;;;;;;5014808;28;20033;-39
2021/07/22 09:13:24;;;;;;;2.58;2.00;;;25.70;53.10;;;;;;5016425;28;20030;-40
2021/07/22 09:15:54;;;;;;;3.63;1.98;;;25.70;52.50;;;;;;5017141;28;20025;-40
2021/07/22 09:18:30;;;;;;;3.60;2.60;;;25.70;52.40;;;;;;5018694;28;20461;-40
2021/07/22 09:20:56;;;;;;;6.38;2.50;;;25.70;52.50;;;;;;5018359;28;20377;-40
2021/07/22 09:23:26;;;;;;;6.40;4.93;;;25.70;52.80;;;;;;5018421;28;20026;-40
2021/07/22 09:25:54;;;;;;;4.30;2.40;;;25.70;52.60;;;;;;5019070;28;20041;-41
2021/07/22 09:28:22;;;;;;;2.88;2.15;;;25.70;52.70;;;;;;5018019;28;20034;-39
2021/07/22 09:30:57;;;;;;;4.88;2.40;;;25.70;52.10;;;;;;5018501;28;20453;-42
2021/07/22 09:33:39;;;;;;;3.17;2.40;;;25.80;52.40;;;;;;5018263;28;20030;-41
2021/07/22 09:36:06;;;;;;;4.07;2.13;;;25.80;51.60;;;;;;5017751;28;20432;-40
2021/07/22 09:38:32;;;;;;;5.45;2.67;;;25.80;52.40;;;;;;5018357;28;20153;-41
2021/07/22 09:40:58;;;;;;;3.45;2.08;;;25.90;52.60;;;;;;5017610;28;20121;-40
2021/07/22 09:43:38;;;;;;;5.20;2.40;;;25.90;51.30;;;;;;5018360;28;20030;-41
2021/07/22 09:46:04;;;;;;;5.07;2.75;;;25.90;52.00;;;;;;5018326;28;20037;-41
2021/07/22 09:48:30;;;;;;;2.85;2.17;;;26.00;52.40;;;;;;5018424;28;20048;-40
2021/07/22 09:50:56;;;;;;;4.18;2.13;;;26.00;51.40;;;;;;5018176;28;20034;-41
2021/07/22 09:53:23;;;;;;;3.65;2.35;;;26.00;51.60;;;;;;5018031;28;20033;-40
2021/07/22 09:55:54;;;;;;;3.17;2.50;;;26.00;52.30;;;;;;5017219;28;20040;-40
2021/07/22 09:58:20;;;;;;;4.93;2.10;;;26.10;52.20;;;;;;5018240;28;20330;-40
2021/07/22 10:00:51;;;;;;;5.03;2.47;;;26.10;51.00;;;;;;5017841;28;20034;-41
2021/07/22 10:03:19;;;;;;;2.60;2.30;;;26.20;51.50;;;;;;5017622;28;20061;-41
2021/07/22 10:06:00;;;;;;;3.63;2.42;;;26.20;51.40;;;;;;5017348;28;20037;-42
2021/07/22 10:08:28;;;;;;;4.97;2.28;;;26.30;52.00;;;;;;5017756;28;20063;-42
2021/07/22 10:10:56;;;;;;;4.50;2.08;;;26.30;51.00;;;;;;5013146;28;20120;-40
2021/07/22 10:13:40;;;;;;;2.65;2.40;;;26.40;50.90;;;;;;5016838;28;20160;-40
2021/07/22 10:16:09;;;;;;;3.53;2.13;;;26.50;51.20;;;;;;5017044;28;20030;-39
2021/07/22 10:18:40;;;;;;;2.55;2.10;;;26.50;50.50;;;;;;5017700;28;20021;-39
2021/07/22 10:21:06;;;;;;;5.80;2.50;;;26.60;49.90;;;;;;5016831;28;20123;-40
2021/07/22 10:23:33;;;;;;;2.65;2.17;;;26.60;49.90;;;;;;5016411;28;20065;-39
2021/07/22 10:25:59;;;;;;;2.85;2.22;;;26.70;49.60;;;;;;5016807;28;20064;-40
2021/07/22 10:28:26;;;;;;;6.28;2.45;;;26.70;48.90;;;;;;5017491;28;20403;-39
2021/07/22 10:30:52;;;;;;;5.07;2.33;;;26.80;49.00;;;;;;5017221;28;20061;-40
2021/07/22 10:33:20;;;;;;;3.45;2.60;;;26.80;48.90;;;;;;5017024;28;20037;-50
2021/07/22 10:35:50;;;;;;;3.90;2.35;;;26.80;49.40;;;;;;5016796;28;20045;-42
2021/07/22 10:38:27;;;;;;;4.72;2.72;;;26.90;49.70;;;;;;5017108;28;20029;-43
2021/07/22 10:40:57;;;;;;;2.85;1.90;;;26.90;49.80;;;;;;5000673;28;20030;-47
2021/07/22 10:43:41;;;;;;;4.70;2.40;;;27.00;48.70;;;;;;5016948;28;20037;-43
2021/07/22 10:46:16;;;;;;;2.60;2.33;;;27.10;48.60;;;;;;5016765;28;20322;-45
2021/07/22 10:48:44;;;;;;;4.28;2.15;;;27.10;48.10;;;;;;5017248;28;20034;-46
2021/07/22 10:51:41;;;;;;;2.92;1.88;;;27.10;48.20;;;;;;5016838;28;20033;-42
2021/07/22 10:54:07;;;;;;;3.67;2.30;;;27.20;48.10;;;;;;5016498;28;20351;-45
2021/07/22 10:56:35;;;;;;;6.97;2.53;;;27.20;48.50;;;;;;5016585;28;20070;-43
2021/07/22 10:59:01;;;;;;;4.78;2.38;;;27.30;48.70;;;;;;5017163;28;20045;-45
2021/07/22 11:01:42;;;;;;;3.25;2.28;;;27.40;48.70;;;;;;5016621;28;20060;-48
2021/07/22 11:04:17;;;;;;;2.63;2.10;;;27.40;48.80;;;;;;5017213;28;20030;-47
2021/07/22 11:06:58;;;;;;;12.68;3.15;;;27.50;47.20;;;;;;5016507;28;20079;-47
2021/07/22 11:09:55;;;;;;;4.97;2.70;;;27.50;47.10;;;;;;5017243;28;20109;-44
2021/07/22 11:12:42;;;;;;;4.95;2.25;;;27.60;47.50;;;;;;5005018;28;20073;-46
2021/07/22 11:15:18;;;;;;;5.00;2.40;;;27.60;47.20;;;;;;5016609;28;20038;-45
2021/07/22 11:17:45;;;;;;;6.07;2.28;;;27.70;47.20;;;;;;5016555;28;20082;-45
2021/07/22 11:20:19;;;;;;;2.80;2.25;;;27.80;47.10;;;;;;5013828;28;20082;-45
2021/07/22 11:22:47;;;;;;;5.45;2.72;;;27.80;46.50;;;;;;5016201;28;20040;-44
2021/07/22 11:25:13;;;;;;;6.18;2.30;;;27.90;46.90;;;;;;5016402;28;20307;-45
2021/07/22 11:27:46;;;;;;;4.38;2.20;;;28.00;46.70;;;;;;5016292;28;20022;-45
2021/07/22 11:30:16;;;;;;;8.32;2.65;;;28.10;46.90;;;;;;5016126;28;20033;-48
2021/07/22 11:32:43;;;;;;;6.45;2.70;;;28.20;46.70;;;;;;5015779;28;20446;-48
2021/07/22 11:35:09;;;;;;;12.50;2.65;;;28.20;46.30;;;;;;5015608;28;20049;-44
2021/07/22 11:37:35;;;;;;;7.50;2.25;;;28.30;46.00;;;;;;5016154;28;20329;-43
2021/07/22 11:40:11;;;;;;;10.70;3.38;;;28.40;45.50;;;;;;5016172;28;20239;-44
2021/07/22 11:42:47;;;;;;;17.38;3.10;;;28.40;45.90;;;;;;5015933;28;20449;-43
2021/07/22 11:45:13;;;;;;;10.70;2.72;;;28.50;45.80;;;;;;5011558;28;20056;-45
2021/07/22 11:47:39;;;;;;;8.98;2.88;;;28.50;45.80;;;;;;5015545;28;20196;-43
2021/07/22 11:50:06;;;;;;;9.20;3.25;;;28.60;45.90;;;;;;5015042;28;20109;-45
2021/07/22 11:52:32;;;;;;;6.90;2.60;;;28.60;45.90;;;;;;5015530;28;20061;-44
2021/07/22 11:55:08;;;;;;;15.23;3.30;;;28.70;45.50;;;;;;5015674;28;20378;-43
2021/07/22 11:57:35;;;;;;;4.10;2.20;;;28.90;45.50;;;;;;5015696;28;20117;-45
2021/07/22 12:00:14;;;;;;;10.43;3.05;;;29.00;45.20;;;;;;5015951;28;20040;-45
2021/07/22 12:02:43;;;;;;;6.50;2.30;;;29.10;46.00;;;;;;5015809;28;20120;-47
2021/07/22 12:05:13;;;;;;;6.35;2.65;;;29.20;46.00;;;;;;5015315;28;20041;-45
2021/07/22 12:07:40;;;;;;;7.18;2.72;;;29.40;46.10;;;;;;5015749;28;20113;-46
2021/07/22 12:10:06;;;;;;;4.60;2.22;;;29.60;45.10;;;;;;5015884;28;20072;-46
2021/07/22 12:12:32;;;;;;;4.45;2.30;;;29.80;42.90;;;;;;5015414;28;20108;-50
2021/07/22 12:15:10;;;;;;;7.97;2.88;;;29.90;42.80;;;;;;5015736;28;20113;-45
2021/07/22 12:17:36;;;;;;;4.30;2.13;;;30.00;42.90;;;;;;5015207;28;20030;-45
2021/07/22 12:20:04;;;;;;;11.23;2.70;;;30.20;41.80;;;;;;5014789;28;20033;-44
2021/07/22 12:22:33;;;;;;;5.20;2.10;;;30.30;42.60;;;;;;5015225;28;20157;-48
2021/07/22 12:25:01;;;;;;;6.10;2.50;;;30.40;40.40;;;;;;5012659;28;20034;-46
2021/07/22 12:27:43;;;;;;;4.65;2.50;;;30.50;41.30;;;;;;5014810;28;20054;-45
2021/07/22 12:30:30;;;;;;;4.03;2.10;;;30.70;40.80;;;;;;5015213;28;20042;-44
2021/07/22 12:33:00;;;;;;;5.10;2.45;;;30.70;40.60;;;;;;5014926;28;20037;-44
2021/07/22 12:35:40;;;;;;;3.35;2.40;;;30.90;40.80;;;;;;5015140;28;20054;-45
2021/07/22 12:38:16;;;;;;;3.83;2.45;;;31.00;41.20;;;;;;5015348;28;20052;-47
2021/07/22 12:40:43;;;;;;;10.30;2.10;;;31.10;41.50;;;;;;5014988;28;20069;-44
2021/07/22 12:43:11;;;;;;;3.38;2.35;;;31.20;40.90;;;;;;5015405;28;20030;-48
2021/07/22 12:45:37;;;;;;;5.63;2.35;;;31.30;41.30;;;;;;5015315;28;20033;-48
2021/07/22 12:48:04;;;;;;;4.55;2.50;;;31.40;40.80;;;;;;5018148;28;20026;-47